createdAt,value
2018-10-19T00:00:50.689Z,12.93
2018-10-19T00:03:18.903Z,14.90
2018-10-19T00:05:47.068Z,13.97
2018-10-19T00:08:15.231Z,13.00
2018-10-19T00:10:43.464Z,12.80
2018-10-19T00:13:11.638Z,14.33
2018-10-19T00:15:39.828Z,13.83
2018-10-19T00:18:08.260Z,13.40
2018-10-19T00:20:36.459Z,13.70
2018-10-19T00:23:04.823Z,13.03
2018-10-19T00:25:32.968Z,12.40
2018-10-19T00:28:01.140Z,12.47
2018-10-19T00:30:29.348Z,13.77
2018-10-19T00:32:57.595Z,13.60
2018-10-19T00:35:25.752Z,12.10
2018-10-19T00:37:53.952Z,12.30
2018-10-19T00:40:22.170Z,12.20
2018-10-19T00:42:50.424Z,11.93
2018-10-19T00:45:18.627Z,11.17
2018-10-19T00:47:46.837Z,11.60
2018-10-19T00:50:15.019Z,11.83
2018-10-19T00:52:43.219Z,10.33
2018-10-19T00:55:11.402Z,11.03
2018-10-19T00:57:39.634Z,11.70
2018-10-19T01:00:07.830Z,10.40
2018-10-19T01:02:36.029Z,10.57
2018-10-19T01:05:04.274Z,10.73
2018-10-19T01:07:32.503Z,10.70
2018-10-19T01:10:00.686Z,10.03
2018-10-19T01:12:28.880Z,9.27
2018-10-19T01:14:57.114Z,9.20
2018-10-19T01:17:25.302Z,10.33
2018-10-19T01:19:53.491Z,10.47
2018-10-19T01:22:21.678Z,9.80
2018-10-19T01:24:49.890Z,10.97
2018-10-19T01:27:18.095Z,9.77
2018-10-19T01:29:46.259Z,10.63
2018-10-19T01:32:14.471Z,9.83
2018-10-19T01:34:42.663Z,10.00
2018-10-19T01:37:10.830Z,9.17
2018-10-19T01:39:39.118Z,10.07
2018-10-19T01:42:07.283Z,9.93
2018-10-19T01:44:35.462Z,9.40
2018-10-19T01:47:03.694Z,11.10
2018-10-19T01:49:31.825Z,9.80
2018-10-19T01:51:59.995Z,9.77
2018-10-19T01:54:28.208Z,9.97
2018-10-19T01:56:56.410Z,9.63
2018-10-19T01:59:24.588Z,10.50
2018-10-19T02:01:52.786Z,10.03
2018-10-19T02:04:20.971Z,10.00
2018-10-19T02:06:49.176Z,8.80
2018-10-19T02:09:17.344Z,9.40
2018-10-19T02:11:45.560Z,9.20
2018-10-19T02:14:13.750Z,9.47
2018-10-19T02:16:42.211Z,10.20
2018-10-19T02:19:10.388Z,8.10
2018-10-19T02:21:38.590Z,8.37
2018-10-19T02:24:06.776Z,10.10
2018-10-19T02:26:35.084Z,8.90
2018-10-19T02:29:03.295Z,9.20
2018-10-19T02:31:31.445Z,9.17
2018-10-19T02:33:59.657Z,10.10
2018-10-19T02:36:27.863Z,10.40
2018-10-19T02:38:56.132Z,9.33
2018-10-19T02:41:24.295Z,8.90
2018-10-19T02:43:52.495Z,9.83
2018-10-19T02:46:20.676Z,9.40
2018-10-19T02:48:48.923Z,10.07
2018-10-19T02:51:17.140Z,10.33
2018-10-19T02:53:45.288Z,10.23
2018-10-19T02:56:13.480Z,9.87
2018-10-19T02:58:41.699Z,10.40
2018-10-19T03:01:09.882Z,10.20
2018-10-19T03:03:38.163Z,10.60
2018-10-19T03:06:06.364Z,9.50
2018-10-19T03:08:34.554Z,10.00
2018-10-19T03:11:02.810Z,11.30
2018-10-19T03:13:30.950Z,11.57
2018-10-19T03:15:59.168Z,11.53
2018-10-19T03:18:27.355Z,11.03
2018-10-19T03:20:55.592Z,11.67
2018-10-19T03:23:23.752Z,10.77
2018-10-19T03:25:51.987Z,10.93
2018-10-19T03:28:20.179Z,11.97
2018-10-19T03:30:48.392Z,10.47
2018-10-19T03:33:16.639Z,10.10
2018-10-19T03:35:44.858Z,10.43
2018-10-19T03:38:13.885Z,10.17
2018-10-19T03:40:42.109Z,10.67
2018-10-19T03:43:10.289Z,10.10
2018-10-19T03:45:38.523Z,9.30
2018-10-19T03:48:06.784Z,10.13
2018-10-19T03:50:34.979Z,8.97
2018-10-19T03:53:03.209Z,10.13
2018-10-19T03:55:31.363Z,9.67
2018-10-19T03:57:59.551Z,9.83
2018-10-19T04:00:27.756Z,9.90
2018-10-19T04:02:56.041Z,10.47
2018-10-19T04:05:24.804Z,10.20
2018-10-19T04:07:53.007Z,9.53
2018-10-19T04:10:21.416Z,9.80
2018-10-19T04:12:49.627Z,10.67
2018-10-19T04:15:17.881Z,10.30
2018-10-19T04:17:46.027Z,10.33
2018-10-19T04:20:14.208Z,10.30
2018-10-19T04:22:42.407Z,10.00
2018-10-19T04:25:10.599Z,9.67
2018-10-19T04:27:38.874Z,9.40
2018-10-19T04:30:07.475Z,9.60
2018-10-19T04:32:35.667Z,10.43
2018-10-19T04:35:03.928Z,10.30
2018-10-19T04:37:32.068Z,10.40
2018-10-19T04:40:00.268Z,10.93
2018-10-19T04:42:28.479Z,9.37
2018-10-19T04:44:56.693Z,10.80
2018-10-19T04:47:24.832Z,11.53
2018-10-19T04:49:53.021Z,9.97
2018-10-19T04:52:21.232Z,10.00
2018-10-19T04:54:49.435Z,8.73
2018-10-19T04:57:17.657Z,9.67
2018-10-19T04:59:45.812Z,10.67
2018-10-19T05:02:13.992Z,9.63
2018-10-19T05:04:42.204Z,10.27
2018-10-19T05:07:10.347Z,11.83
2018-10-19T05:09:38.548Z,10.00
2018-10-19T05:12:06.721Z,10.47
2018-10-19T05:14:34.931Z,9.67
2018-10-19T05:17:03.181Z,10.43
2018-10-19T05:19:31.295Z,9.97
2018-10-19T05:21:59.488Z,9.10
2018-10-19T05:24:27.735Z,10.07
2018-10-19T05:26:55.892Z,10.70
2018-10-19T05:29:24.076Z,10.13
2018-10-19T05:31:52.368Z,10.00
2018-10-19T05:34:20.499Z,9.13
2018-10-19T05:36:48.684Z,10.13
2018-10-19T05:39:16.856Z,10.57
2018-10-19T05:41:45.080Z,10.73
2018-10-19T05:44:13.323Z,9.67
2018-10-19T05:46:41.465Z,10.57
2018-10-19T05:49:09.664Z,9.23
2018-10-19T05:51:37.871Z,9.17
2018-10-19T05:54:06.164Z,9.07
2018-10-19T05:56:34.364Z,9.57
2018-10-19T05:59:02.624Z,9.60
2018-10-19T06:01:30.737Z,9.57
2018-10-19T06:03:58.912Z,9.97
2018-10-19T06:06:27.092Z,9.17
2018-10-19T06:08:55.313Z,8.70
2018-10-19T06:11:23.504Z,8.87
2018-10-19T06:13:51.706Z,8.60
2018-10-19T06:16:20.016Z,8.43
2018-10-19T06:18:48.182Z,8.77
2018-10-19T06:21:16.433Z,9.17
2018-10-19T06:23:44.546Z,7.90
2018-10-19T06:26:12.840Z,8.63
2018-10-19T06:28:40.907Z,9.33
2018-10-19T06:31:09.084Z,9.03
2018-10-19T06:33:37.305Z,8.90
2018-10-19T06:36:05.496Z,9.10
2018-10-19T06:38:33.664Z,9.67
2018-10-19T06:41:02.051Z,8.47
2018-10-19T06:43:30.131Z,9.97
2018-10-19T06:45:58.331Z,8.97
2018-10-19T06:48:26.501Z,8.03
2018-10-19T06:50:54.701Z,8.17
2018-10-19T06:53:22.878Z,9.07
2018-10-19T06:55:51.073Z,8.03
2018-10-19T06:58:19.248Z,6.80
2018-10-19T07:00:47.422Z,7.63
2018-10-19T07:03:15.626Z,7.20
2018-10-19T07:05:43.878Z,7.00
2018-10-19T07:08:11.997Z,7.97
2018-10-19T07:10:40.171Z,7.47
2018-10-19T07:13:08.352Z,6.90
2018-10-19T07:15:36.563Z,6.47
2018-10-19T07:18:05.144Z,7.57
2018-10-19T07:20:33.339Z,7.37
2018-10-19T07:23:01.531Z,7.80
2018-10-19T07:25:29.725Z,7.43
2018-10-19T07:27:57.927Z,7.73
2018-10-19T07:30:26.091Z,7.47
2018-10-19T07:32:54.290Z,8.13
2018-10-19T07:35:22.485Z,7.70
2018-10-19T07:37:50.668Z,7.87
2018-10-19T07:40:18.830Z,6.93
2018-10-19T07:42:47.063Z,6.90
2018-10-19T07:45:15.304Z,7.33
2018-10-19T07:47:43.615Z,6.37
2018-10-19T07:50:11.758Z,6.53
2018-10-19T07:52:40.453Z,6.53
2018-10-19T07:55:09.955Z,6.53
2018-10-19T07:57:38.131Z,7.27
2018-10-19T08:00:07.466Z,6.90
2018-10-19T08:02:35.643Z,7.17
2018-10-19T08:05:03.916Z,7.07
2018-10-19T08:07:32.056Z,6.87
2018-10-19T08:10:00.263Z,7.20
2018-10-19T08:12:28.447Z,7.07
2018-10-19T08:14:56.726Z,7.13
2018-10-19T08:17:24.904Z,5.83
2018-10-19T08:19:53.125Z,5.73
2018-10-19T08:22:21.300Z,6.27
2018-10-19T08:24:50.782Z,6.50
2018-10-19T08:27:19.027Z,6.90
2018-10-19T08:29:47.166Z,5.97
2018-10-19T08:32:15.462Z,8.13
2018-10-19T08:34:43.518Z,6.67
2018-10-19T08:37:11.703Z,6.17
2018-10-19T08:39:39.868Z,7.47
2018-10-19T08:42:08.080Z,6.97
2018-10-19T08:44:36.259Z,6.60
2018-10-19T08:47:04.439Z,6.07
2018-10-19T08:49:32.641Z,5.60
2018-10-19T08:52:00.831Z,7.20
2018-10-19T08:54:29.046Z,6.50
2018-10-19T08:56:57.179Z,6.00
2018-10-19T08:59:25.345Z,7.30
2018-10-19T09:01:53.538Z,7.17
2018-10-19T09:04:21.710Z,5.70
2018-10-19T09:06:49.895Z,6.00
2018-10-19T09:09:18.127Z,8.20
2018-10-19T09:11:46.320Z,8.20
2018-10-19T09:14:26.142Z,7.20
2018-10-19T09:16:54.419Z,6.80
2018-10-19T09:19:22.542Z,7.87
2018-10-19T09:21:50.732Z,5.97
2018-10-19T09:24:18.952Z,6.43
2018-10-19T09:26:47.124Z,6.47
2018-10-19T09:29:15.468Z,6.60
2018-10-19T09:31:43.659Z,6.53
2018-10-19T09:34:11.888Z,9.00
2018-10-19T09:36:40.120Z,7.87
2018-10-19T09:39:10.764Z,8.83
2018-10-19T09:41:38.876Z,8.53
2018-10-19T09:44:07.125Z,8.77
2018-10-19T09:46:38.988Z,9.10
2018-10-19T09:49:08.336Z,8.53
2018-10-19T09:51:37.255Z,8.93
2018-10-19T09:54:05.479Z,7.90
2018-10-19T09:56:33.740Z,8.00
2018-10-19T09:59:02.570Z,8.43
2018-10-19T10:01:30.879Z,8.57
2018-10-19T10:03:59.064Z,8.03
2018-10-19T10:06:27.543Z,7.07
2018-10-19T10:08:55.908Z,7.73
2018-10-19T10:11:24.048Z,6.50
2018-10-19T10:13:52.208Z,7.77
2018-10-19T10:16:20.756Z,7.90
2018-10-19T10:18:49.207Z,8.03
2018-10-19T10:21:17.587Z,9.13
2018-10-19T10:23:45.887Z,10.33
2018-10-19T10:26:14.563Z,10.60
2018-10-19T10:28:42.766Z,10.50
2018-10-19T10:31:10.995Z,10.93
2018-10-19T10:33:39.153Z,9.87
2018-10-19T10:36:07.344Z,9.83
2018-10-19T10:38:35.537Z,11.13
2018-10-19T10:41:03.694Z,10.87
2018-10-19T10:43:31.876Z,11.27
2018-10-19T10:46:00.105Z,10.20
2018-10-19T10:48:28.294Z,11.03
2018-10-19T10:50:57.330Z,10.83
2018-10-19T10:53:25.584Z,13.40
2018-10-19T10:55:53.815Z,12.40
2018-10-19T10:58:22.017Z,13.43
2018-10-19T11:00:50.335Z,12.83
2018-10-19T11:03:18.549Z,13.40
2018-10-19T11:05:47.081Z,13.20
2018-10-19T11:08:15.323Z,12.40
2018-10-19T11:10:43.509Z,14.17
2018-10-19T11:13:11.776Z,14.33
2018-10-19T11:15:39.880Z,15.33
2018-10-19T11:18:08.248Z,14.93
2018-10-19T11:20:36.439Z,15.17
2018-10-19T11:23:04.698Z,15.87
2018-10-19T11:25:33.006Z,15.33
2018-10-19T11:28:01.231Z,14.67
2018-10-19T11:30:29.407Z,17.77
2018-10-19T11:32:57.559Z,18.17
2018-10-19T11:35:25.752Z,17.70
2018-10-19T11:37:54.120Z,15.77
2018-10-19T11:40:27.547Z,15.33
2018-10-19T11:42:56.458Z,17.27
2018-10-19T11:45:26.783Z,15.83
2018-10-19T11:47:54.974Z,15.97
2018-10-19T11:50:23.206Z,18.50
2018-10-19T11:52:51.591Z,15.73
2018-10-19T11:55:19.795Z,18.50
2018-10-19T11:57:48.860Z,19.23
2018-10-19T12:00:17.120Z,19.93
2018-10-19T12:02:45.297Z,18.33
2018-10-19T12:05:13.524Z,16.40
2018-10-19T12:07:41.702Z,19.10
2018-10-19T12:10:11.044Z,21.37
2018-10-19T12:12:39.665Z,19.47
2018-10-19T12:15:09.376Z,18.57
2018-10-19T12:17:37.749Z,19.73
2018-10-19T12:20:07.515Z,20.03
2018-10-19T12:22:35.715Z,18.53
2018-10-19T12:25:04.228Z,17.57
2018-10-19T12:27:32.330Z,17.83
2018-10-19T12:30:00.591Z,19.20
2018-10-19T12:32:28.737Z,21.83
2018-10-19T12:34:56.947Z,20.77
2018-10-19T12:37:25.128Z,21.77
2018-10-19T12:39:53.351Z,21.03
2018-10-19T12:42:21.562Z,24.77
2018-10-19T12:44:49.794Z,24.40
2018-10-19T12:47:40.815Z,23.33
2018-10-19T12:50:09.168Z,27.43
2018-10-19T12:52:37.548Z,24.93
2018-10-19T12:55:07.341Z,24.40
2018-10-19T12:57:35.563Z,25.07
2018-10-19T13:00:04.128Z,24.37
2018-10-19T13:02:32.332Z,23.33
2018-10-19T13:05:00.605Z,25.53
2018-10-19T13:07:28.764Z,23.47
2018-10-19T13:09:56.975Z,22.53
2018-10-19T13:12:25.196Z,22.03
2018-10-19T13:14:53.478Z,22.60
2018-10-19T13:17:21.637Z,24.50
2018-10-19T13:19:49.851Z,23.47
2018-10-19T13:22:18.097Z,22.03
2018-10-19T13:24:46.293Z,25.30
2018-10-19T13:27:14.602Z,24.80
2018-10-19T13:29:42.727Z,28.00
2018-10-19T13:32:10.964Z,22.73
2018-10-19T13:34:39.147Z,25.63
2018-10-19T13:37:07.358Z,26.77
2018-10-19T13:39:35.930Z,26.17
2018-10-19T13:42:04.128Z,25.83
2018-10-19T13:44:32.332Z,25.87
2018-10-19T13:47:00.639Z,26.83
2018-10-19T13:49:28.784Z,24.53
2018-10-19T13:51:56.959Z,26.13
2018-10-19T13:54:25.167Z,26.90
2018-10-19T13:56:53.423Z,24.67
2018-10-19T13:59:21.592Z,28.93
2018-10-19T14:01:49.799Z,28.00
2018-10-19T14:04:18.009Z,27.80
2018-10-19T14:06:46.203Z,26.03
2018-10-19T14:09:14.489Z,23.00
2018-10-19T14:11:42.623Z,21.17
2018-10-19T14:14:10.817Z,21.30
2018-10-19T14:16:38.983Z,22.53
2018-10-19T14:19:07.185Z,23.90
2018-10-19T14:21:35.358Z,20.90
2018-10-19T14:24:03.550Z,27.73
2018-10-19T14:26:31.749Z,29.73
2018-10-19T14:28:59.950Z,24.83
2018-10-19T14:31:28.139Z,27.40
2018-10-19T14:33:56.424Z,25.87
2018-10-19T14:36:24.640Z,30.43
2018-10-19T14:38:52.799Z,27.57
2018-10-19T14:41:21.008Z,28.73
2018-10-19T14:43:49.326Z,27.77
2018-10-19T14:46:17.615Z,31.97
2018-10-19T14:48:45.813Z,28.13
2018-10-19T14:51:14.052Z,25.17
2018-10-19T14:53:42.161Z,25.83
2018-10-19T14:56:10.353Z,26.67
2018-10-19T14:58:38.544Z,25.83
2018-10-19T15:01:06.748Z,25.77
2018-10-19T15:03:35.191Z,29.73
2018-10-19T15:06:03.388Z,26.57
2018-10-19T15:08:31.581Z,23.73
2018-10-19T15:10:59.956Z,24.00
2018-10-19T15:13:27.992Z,26.03
2018-10-19T15:15:56.351Z,26.43
2018-10-19T15:18:24.634Z,22.30
2018-10-19T15:20:52.802Z,22.00
2018-10-19T15:23:21.000Z,21.73
2018-10-19T15:25:49.220Z,22.43
2018-10-19T15:28:17.392Z,21.70
2018-10-19T15:30:45.574Z,21.87
2018-10-19T15:33:13.877Z,20.83
2018-10-19T15:35:41.979Z,21.77
2018-10-19T15:38:10.151Z,22.87
2018-10-19T15:40:38.364Z,23.53
2018-10-19T15:43:09.399Z,24.07
2018-10-19T15:45:37.583Z,24.43
2018-10-19T15:48:05.783Z,22.80
2018-10-19T15:50:33.945Z,24.37
2018-10-19T15:53:02.140Z,21.70
2018-10-19T15:55:30.344Z,21.63
2018-10-19T15:57:58.512Z,22.87
2018-10-19T16:00:26.823Z,22.73
2018-10-19T16:02:54.954Z,24.23
2018-10-19T16:05:23.103Z,23.67
2018-10-19T16:07:51.275Z,26.00
2018-10-19T16:10:19.503Z,22.30
2018-10-19T16:12:47.686Z,28.60
2018-10-19T16:15:15.931Z,36.13
2018-10-19T16:17:44.161Z,37.17
2018-10-19T16:20:12.274Z,28.53
2018-10-19T16:22:40.478Z,26.37
2018-10-19T16:25:08.977Z,25.53
2018-10-19T16:27:38.470Z,27.03
2018-10-19T16:30:07.967Z,29.37
2018-10-19T16:32:36.183Z,34.13
2018-10-19T16:35:04.404Z,38.13
2018-10-19T16:37:32.609Z,45.73
2018-10-19T16:40:00.790Z,34.80
2018-10-19T16:42:28.975Z,30.43
2018-10-19T16:44:57.336Z,32.53
2018-10-19T16:47:25.456Z,30.30
2018-10-19T16:49:53.701Z,28.70
2018-10-19T16:52:22.028Z,27.93
2018-10-19T16:54:50.223Z,30.10
2018-10-19T16:57:18.399Z,29.80
2018-10-19T16:59:46.572Z,31.00
2018-10-19T17:02:14.775Z,29.73
2018-10-19T17:04:43.008Z,35.70
2018-10-19T17:07:11.133Z,45.27
2018-10-19T17:09:39.331Z,38.17
2018-10-19T17:12:07.532Z,36.20
2018-10-19T17:14:35.707Z,44.17
2018-10-19T17:17:04.004Z,49.93
2018-10-19T17:19:32.224Z,42.10
2018-10-19T17:22:00.417Z,30.40
2018-10-19T17:24:28.643Z,27.50
2018-10-19T17:26:56.906Z,28.27
2018-10-19T17:29:25.067Z,27.80
2018-10-19T17:31:53.248Z,24.60
2018-10-19T17:34:21.491Z,24.83
2018-10-19T17:36:49.684Z,24.53
2018-10-19T17:39:17.942Z,27.97
2018-10-19T17:41:46.125Z,26.27
2018-10-19T17:44:14.298Z,28.93
2018-10-19T17:46:42.527Z,26.60
2018-10-19T17:49:10.790Z,31.27
2018-10-19T17:51:39.111Z,29.73
2018-10-19T17:54:07.366Z,27.13
2018-10-19T17:56:35.531Z,23.40
2018-10-19T17:59:03.777Z,29.73
2018-10-19T18:01:32.087Z,41.27
2018-10-19T18:04:00.264Z,26.97
2018-10-19T18:06:28.493Z,35.13
2018-10-19T18:08:56.714Z,28.27
2018-10-19T18:11:24.933Z,23.00
2018-10-19T18:13:53.322Z,21.80
2018-10-19T18:16:21.503Z,22.67
2018-10-19T18:18:49.667Z,22.97
2018-10-19T18:21:17.968Z,26.33
2018-10-19T18:23:46.061Z,23.07
2018-10-19T18:26:14.476Z,24.20
2018-10-19T18:28:42.618Z,20.97
2018-10-19T18:31:10.836Z,22.10
2018-10-19T18:33:39.019Z,22.93
2018-10-19T18:36:07.270Z,24.83
2018-10-19T18:38:35.444Z,22.97
2018-10-19T18:41:03.710Z,20.97
2018-10-19T18:43:32.032Z,20.83
2018-10-19T18:46:00.230Z,18.80
2018-10-19T18:48:28.868Z,17.90
2018-10-19T18:50:57.095Z,23.37
2018-10-19T18:53:25.283Z,25.17
2018-10-19T18:55:53.517Z,22.13
2018-10-19T18:58:21.684Z,20.67
2018-10-19T19:00:49.947Z,18.70
2018-10-19T19:03:18.203Z,19.70
2018-10-19T19:05:46.423Z,22.03
2018-10-19T19:08:15.264Z,21.47
2018-10-19T19:10:43.370Z,20.23
2018-10-19T19:13:17.016Z,21.90
2018-10-19T19:15:45.293Z,19.60
2018-10-19T19:18:13.652Z,18.43
2018-10-19T19:20:41.856Z,17.63
2018-10-19T19:23:10.303Z,16.33
2018-10-19T19:25:43.827Z,17.13
2018-10-19T19:28:12.036Z,17.97
2018-10-19T19:30:40.895Z,16.87
2018-10-19T19:33:14.481Z,17.40
2018-10-19T19:35:42.719Z,17.03
2018-10-19T19:38:11.422Z,15.90
2018-10-19T19:40:45.017Z,19.70
2018-10-19T19:43:13.198Z,16.47
2018-10-19T19:45:41.381Z,17.23
2018-10-19T19:48:14.931Z,17.37
2018-10-19T19:50:43.103Z,17.37
2018-10-19T19:53:11.367Z,16.53
2018-10-19T19:55:39.537Z,16.57
2018-10-19T19:58:08.016Z,17.77
2018-10-19T20:00:36.365Z,19.73
2018-10-19T20:03:04.817Z,19.10
2018-10-19T20:05:33.356Z,19.23
2018-10-19T20:08:01.819Z,21.97
2018-10-19T20:10:30.263Z,20.50
2018-10-19T20:12:58.719Z,19.03
2018-10-19T20:15:27.180Z,20.23
2018-10-19T20:17:55.569Z,18.93
2018-10-19T20:20:23.989Z,19.30
2018-10-19T20:22:52.448Z,20.00
2018-10-19T20:25:20.956Z,20.77
2018-10-19T20:27:49.388Z,21.30
2018-10-19T20:30:17.881Z,23.23
2018-10-19T20:32:46.297Z,20.63
2018-10-19T20:35:14.828Z,19.80
2018-10-19T20:37:43.179Z,20.03
2018-10-19T20:40:11.644Z,20.33
2018-10-19T20:42:40.076Z,20.57
2018-10-19T20:45:08.484Z,20.77
2018-10-19T20:47:36.976Z,21.50
2018-10-19T20:50:05.644Z,21.23
2018-10-19T20:52:33.978Z,22.80
2018-10-19T20:55:02.477Z,21.63
2018-10-19T20:57:30.888Z,20.53
2018-10-19T20:59:59.320Z,20.27
2018-10-19T21:02:27.769Z,22.13
2018-10-19T21:04:56.222Z,21.43
2018-10-19T21:07:24.726Z,21.03
2018-10-19T21:09:53.144Z,21.07
2018-10-19T21:12:21.644Z,21.80
2018-10-19T21:14:50.094Z,21.93
2018-10-19T21:17:18.551Z,22.83
2018-10-19T21:19:47.033Z,21.27
2018-10-19T21:22:15.494Z,21.67
2018-10-19T21:24:43.928Z,20.07
2018-10-19T21:27:12.364Z,20.90
2018-10-19T21:29:40.962Z,21.07
2018-10-19T21:32:09.703Z,20.23
2018-10-19T21:34:38.067Z,20.80
2018-10-19T21:37:06.597Z,20.00
2018-10-19T21:39:35.035Z,20.57
2018-10-19T21:42:03.519Z,19.40
2018-10-19T21:44:31.939Z,20.27
2018-10-19T21:47:00.372Z,19.63
2018-10-19T21:49:28.882Z,18.33
2018-10-19T21:51:57.340Z,18.80
2018-10-19T21:54:25.943Z,16.53
2018-10-19T21:56:54.332Z,19.30
2018-10-19T21:59:22.729Z,18.50
2018-10-19T22:01:51.196Z,19.60
2018-10-19T22:04:19.638Z,18.40
2018-10-19T22:06:48.107Z,18.87
2018-10-19T22:09:16.593Z,17.60
2018-10-19T22:11:45.015Z,19.20
2018-10-19T22:14:13.429Z,17.80
2018-10-19T22:16:41.872Z,17.77
2018-10-19T22:19:11.148Z,18.33
2018-10-19T22:21:40.308Z,17.80
2018-10-19T22:24:09.575Z,18.67
2018-10-19T22:26:38.202Z,17.87
2018-10-19T22:29:06.910Z,19.17
2018-10-19T22:31:35.350Z,19.07
2018-10-19T22:34:03.752Z,18.93
2018-10-19T22:36:32.170Z,19.17
2018-10-19T22:39:00.702Z,19.73
2018-10-19T22:41:29.141Z,18.30
2018-10-19T22:43:57.557Z,18.73
2018-10-19T22:46:26.052Z,20.53
2018-10-19T22:48:54.484Z,19.50
2018-10-19T22:51:22.857Z,18.83
2018-10-19T22:53:51.304Z,20.63
2018-10-19T22:56:19.761Z,19.90
2018-10-19T22:58:48.232Z,21.27
2018-10-19T23:01:16.588Z,21.57
2018-10-19T23:03:44.955Z,22.83
2018-10-19T23:06:13.401Z,19.10
2018-10-19T23:08:41.826Z,20.13
2018-10-19T23:11:10.240Z,21.97
2018-10-19T23:13:38.676Z,19.07
2018-10-19T23:16:07.129Z,18.43
2018-10-19T23:18:35.575Z,20.50
2018-10-19T23:21:03.981Z,18.97
2018-10-19T23:23:32.410Z,19.70
2018-10-19T23:26:00.819Z,21.23
2018-10-19T23:28:29.315Z,20.60
2018-10-19T23:30:57.737Z,20.67
2018-10-19T23:33:26.189Z,20.50
2018-10-19T23:35:54.680Z,19.43
2018-10-19T23:38:23.112Z,20.87
2018-10-19T23:40:51.549Z,20.97
2018-10-19T23:43:19.956Z,19.77
2018-10-19T23:45:48.389Z,19.10
2018-10-19T23:48:16.843Z,21.37
2018-10-19T23:50:45.242Z,21.83
2018-10-19T23:53:13.875Z,20.40
2018-10-19T23:55:42.204Z,20.23
2018-10-19T23:58:10.578Z,19.00
